sensor_id;sensor_type;location;lat;lon;timestamp;pressure;altitude;pressure_sealevel;temperature;humidity
68855;BME280;69984;-43.570;172.580;2023-05-20T00:02:14;98992.84;;;10.88;100.00
68855;BME280;69984;-43.570;172.580;2023-05-20T00:04:41;98993.88;;;10.87;100.00
68855;BME280;69984;-43.570;172.580;2023-05-20T00:07:09;98984.81;;;10.89;100.00
68855;BME280;69984;-43.570;172.580;2023-05-20T00:09:37;98990.81;;;10.83;100.00
68855;BME280;69984;-43.570;172.580;2023-05-20T00:12:05;98988.00;;;10.85;100.00
68855;BME280;69984;-43.570;172.580;2023-05-20T00:14:32;98975.97;;;10.90;100.00
68855;BME280;69984;-43.570;172.580;2023-05-20T00:16:59;98979.59;;;10.89;100.00
68855;BME280;69984;-43.570;172.580;2023-05-20T00:19:26;98970.72;;;10.90;100.00
68855;BME280;69984;-43.570;172.580;2023-05-20T00:21:53;98958.72;;;11.02;100.00
68855;BME280;69984;-43.570;172.580;2023-05-20T00:24:23;98960.81;;;11.14;100.00
68855;BME280;69984;-43.570;172.580;2023-05-20T00:26:50;98961.91;;;11.26;100.00
68855;BME280;69984;-43.570;172.580;2023-05-20T00:29:17;98967.63;;;11.36;100.00
68855;BME280;69984;-43.570;172.580;2023-05-20T00:31:44;98952.41;;;11.25;100.00
68855;BME280;69984;-43.570;172.580;2023-05-20T00:34:11;98949.06;;;11.37;100.00
68855;BME280;69984;-43.570;172.580;2023-05-20T00:36:38;98956.69;;;11.32;100.00
68855;BME280;69984;-43.570;172.580;2023-05-20T00:39:05;98946.03;;;11.40;100.00
68855;BME280;69984;-43.570;172.580;2023-05-20T00:41:32;98945.91;;;11.55;100.00
68855;BME280;69984;-43.570;172.580;2023-05-20T00:43:59;98948.56;;;11.62;100.00
68855;BME280;69984;-43.570;172.580;2023-05-20T00:46:27;98946.31;;;11.52;100.00
68855;BME280;69984;-43.570;172.580;2023-05-20T00:48:55;98945.22;;;11.40;100.00
68855;BME280;69984;-43.570;172.580;2023-05-20T00:51:22;98940.19;;;11.38;100.00
68855;BME280;69984;-43.570;172.580;2023-05-20T00:53:49;98947.63;;;11.35;100.00
68855;BME280;69984;-43.570;172.580;2023-05-20T00:56:17;98938.53;;;11.31;100.00
68855;BME280;69984;-43.570;172.580;2023-05-20T00:58:44;98945.44;;;11.38;100.00
68855;BME280;69984;-43.570;172.580;2023-05-20T01:01:11;98940.38;;;11.37;100.00
68855;BME280;69984;-43.570;172.580;2023-05-20T01:03:38;98927.88;;;11.39;100.00
68855;BME280;69984;-43.570;172.580;2023-05-20T01:06:06;98945.59;;;11.37;100.00
68855;BME280;69984;-43.570;172.580;2023-05-20T01:08:33;98942.41;;;11.41;100.00
68855;BME280;69984;-43.570;172.580;2023-05-20T01:11:11;98935.16;;;11.43;100.00
68855;BME280;69984;-43.570;172.580;2023-05-20T01:13:46;98930.75;;;11.50;100.00
68855;BME280;69984;-43.570;172.580;2023-05-20T01:16:17;98935.28;;;11.63;100.00
68855;BME280;69984;-43.570;172.580;2023-05-20T01:18:44;98934.13;;;11.72;100.00
68855;BME280;69984;-43.570;172.580;2023-05-20T01:21:14;98923.34;;;11.61;100.00
68855;BME280;69984;-43.570;172.580;2023-05-20T01:23:42;98930.50;;;11.80;100.00
68855;BME280;69984;-43.570;172.580;2023-05-20T01:26:09;98923.84;;;11.71;100.00
68855;BME280;69984;-43.570;172.580;2023-05-20T01:28:39;98941.88;;;11.52;100.00
68855;BME280;69984;-43.570;172.580;2023-05-20T01:31:19;98926.34;;;11.58;100.00
68855;BME280;69984;-43.570;172.580;2023-05-20T01:33:53;98926.81;;;11.68;100.00
68855;BME280;69984;-43.570;172.580;2023-05-20T01:36:22;98914.03;;;11.58;100.00
68855;BME280;69984;-43.570;172.580;2023-05-20T01:38:50;98921.75;;;11.66;100.00
68855;BME280;69984;-43.570;172.580;2023-05-20T01:41:19;98930.09;;;11.76;100.00
68855;BME280;69984;-43.570;172.580;2023-05-20T01:43:47;98924.88;;;11.83;100.00
68855;BME280;69984;-43.570;172.580;2023-05-20T01:46:14;98930.53;;;11.86;100.00
68855;BME280;69984;-43.570;172.580;2023-05-20T01:48:41;98913.56;;;11.82;100.00
68855;BME280;69984;-43.570;172.580;2023-05-20T01:51:08;98919.84;;;11.81;100.00
68855;BME280;69984;-43.570;172.580;2023-05-20T01:53:35;98923.44;;;11.74;100.00
68855;BME280;69984;-43.570;172.580;2023-05-20T01:56:03;98922.53;;;11.60;100.00
68855;BME280;69984;-43.570;172.580;2023-05-20T01:58:31;98921.06;;;11.51;100.00
68855;BME280;69984;-43.570;172.580;2023-05-20T02:00:58;98912.19;;;11.52;100.00
68855;BME280;69984;-43.570;172.580;2023-05-20T02:03:25;98922.66;;;11.45;100.00
68855;BME280;69984;-43.570;172.580;2023-05-20T02:05:52;98921.44;;;11.41;100.00
68855;BME280;69984;-43.570;172.580;2023-05-20T02:08:19;98918.84;;;11.48;100.00
68855;BME280;69984;-43.570;172.580;2023-05-20T02:10:47;98927.88;;;11.39;100.00
68855;BME280;69984;-43.570;172.580;2023-05-20T02:13:15;98930.09;;;11.35;100.00
68855;BME280;69984;-43.570;172.580;2023-05-20T02:15:42;98928.28;;;11.36;100.00
68855;BME280;69984;-43.570;172.580;2023-05-20T02:18:10;98925.06;;;11.40;100.00
68855;BME280;69984;-43.570;172.580;2023-05-20T02:20:37;98918.03;;;11.47;100.00
68855;BME280;69984;-43.570;172.580;2023-05-20T02:23:04;98923.13;;;11.56;100.00
68855;BME280;69984;-43.570;172.580;2023-05-20T02:25:32;98913.81;;;11.46;100.00
68855;BME280;69984;-43.570;172.580;2023-05-20T02:27:59;98920.81;;;11.39;100.00
68855;BME280;69984;-43.570;172.580;2023-05-20T02:30:26;98918.69;;;11.15;100.00
68855;BME280;69984;-43.570;172.580;2023-05-20T02:32:53;98917.31;;;11.26;100.00
68855;BME280;69984;-43.570;172.580;2023-05-20T02:35:20;98921.09;;;11.17;100.00
68855;BME280;69984;-43.570;172.580;2023-05-20T02:37:47;98925.97;;;11.26;100.00
68855;BME280;69984;-43.570;172.580;2023-05-20T02:40:14;98923.16;;;11.21;100.00
68855;BME280;69984;-43.570;172.580;2023-05-20T02:42:41;98929.94;;;11.16;100.00
68855;BME280;69984;-43.570;172.580;2023-05-20T02:45:09;98931.56;;;11.17;100.00
68855;BME280;69984;-43.570;172.580;2023-05-20T02:47:36;98918.88;;;11.20;100.00
68855;BME280;69984;-43.570;172.580;2023-05-20T02:50:03;98915.06;;;11.23;100.00
68855;BME280;69984;-43.570;172.580;2023-05-20T02:52:30;98917.25;;;11.19;100.00
68855;BME280;69984;-43.570;172.580;2023-05-20T02:54:57;98930.50;;;11.05;100.00
68855;BME280;69984;-43.570;172.580;2023-05-20T02:57:24;98921.72;;;10.91;100.00
68855;BME280;69984;-43.570;172.580;2023-05-20T02:59:54;98921.34;;;10.94;100.00
68855;BME280;69984;-43.570;172.580;2023-05-20T03:02:21;98922.56;;;10.98;100.00
68855;BME280;69984;-43.570;172.580;2023-05-20T03:04:50;98922.34;;;10.93;100.00
68855;BME280;69984;-43.570;172.580;2023-05-20T03:07:19;98923.19;;;11.00;100.00
68855;BME280;69984;-43.570;172.580;2023-05-20T03:09:47;98923.59;;;10.97;100.00
68855;BME280;69984;-43.570;172.580;2023-05-20T03:12:14;98919.53;;;10.94;100.00
68855;BME280;69984;-43.570;172.580;2023-05-20T03:14:41;98936.69;;;10.97;100.00
68855;BME280;69984;-43.570;172.580;2023-05-20T03:17:09;98931.03;;;10.93;100.00
68855;BME280;69984;-43.570;172.580;2023-05-20T03:19:36;98918.31;;;10.90;100.00
68855;BME280;69984;-43.570;172.580;2023-05-20T03:22:04;98920.16;;;10.96;100.00
68855;BME280;69984;-43.570;172.580;2023-05-20T03:24:31;98920.06;;;11.11;100.00
68855;BME280;69984;-43.570;172.580;2023-05-20T03:26:58;98918.22;;;11.39;100.00
68855;BME280;69984;-43.570;172.580;2023-05-20T03:29:25;98911.94;;;11.40;100.00
68855;BME280;69984;-43.570;172.580;2023-05-20T03:31:52;98909.91;;;11.36;100.00
68855;BME280;69984;-43.570;172.580;2023-05-20T03:34:19;98907.31;;;11.42;100.00
68855;BME280;69984;-43.570;172.580;2023-05-20T03:36:46;98909.22;;;11.21;100.00
68855;BME280;69984;-43.570;172.580;2023-05-20T03:39:13;98917.69;;;11.23;100.00
68855;BME280;69984;-43.570;172.580;2023-05-20T03:41:40;98916.41;;;11.12;100.00
68855;BME280;69984;-43.570;172.580;2023-05-20T03:44:07;98922.84;;;11.10;100.00
68855;BME280;69984;-43.570;172.580;2023-05-20T03:46:34;98927.72;;;11.13;100.00
68855;BME280;69984;-43.570;172.580;2023-05-20T03:49:01;98919.28;;;11.17;100.00
68855;BME280;69984;-43.570;172.580;2023-05-20T03:51:29;98927.97;;;11.18;100.00
68855;BME280;69984;-43.570;172.580;2023-05-20T03:53:56;98923.63;;;11.03;100.00
68855;BME280;69984;-43.570;172.580;2023-05-20T03:56:23;98929.31;;;11.07;100.00
68855;BME280;69984;-43.570;172.580;2023-05-20T03:58:51;98926.03;;;11.05;100.00
68855;BME280;69984;-43.570;172.580;2023-05-20T04:01:18;98924.75;;;10.94;100.00
68855;BME280;69984;-43.570;172.580;2023-05-20T04:03:46;98942.50;;;10.92;100.00
68855;BME280;69984;-43.570;172.580;2023-05-20T04:06:13;98930.22;;;10.93;100.00
68855;BME280;69984;-43.570;172.580;2023-05-20T04:08:41;98930.00;;;10.94;100.00
68855;BME280;69984;-43.570;172.580;2023-05-20T04:11:08;98942.31;;;10.94;100.00
68855;BME280;69984;-43.570;172.580;2023-05-20T04:13:35;98930.13;;;10.80;100.00
68855;BME280;69984;-43.570;172.580;2023-05-20T04:16:02;98939.16;;;10.77;100.00
68855;BME280;69984;-43.570;172.580;2023-05-20T04:18:30;98945.03;;;10.58;100.00
68855;BME280;69984;-43.570;172.580;2023-05-20T04:20:57;98936.31;;;10.51;100.00
68855;BME280;69984;-43.570;172.580;2023-05-20T04:23:26;98944.28;;;10.43;100.00
68855;BME280;69984;-43.570;172.580;2023-05-20T04:25:53;98933.00;;;10.42;100.00
68855;BME280;69984;-43.570;172.580;2023-05-20T04:28:22;98948.47;;;10.37;100.00
68855;BME280;69984;-43.570;172.580;2023-05-20T04:30:56;98952.09;;;10.36;100.00
68855;BME280;69984;-43.570;172.580;2023-05-20T04:33:24;98953.84;;;10.29;100.00
68855;BME280;69984;-43.570;172.580;2023-05-20T04:35:51;98949.19;;;10.31;100.00
68855;BME280;69984;-43.570;172.580;2023-05-20T04:38:18;98960.06;;;10.28;100.00
68855;BME280;69984;-43.570;172.580;2023-05-20T04:40:45;98946.78;;;10.30;100.00
68855;BME280;69984;-43.570;172.580;2023-05-20T04:43:12;98947.97;;;10.27;100.00
68855;BME280;69984;-43.570;172.580;2023-05-20T04:45:40;98948.97;;;10.26;100.00
68855;BME280;69984;-43.570;172.580;2023-05-20T04:48:07;98943.97;;;10.31;100.00
68855;BME280;69984;-43.570;172.580;2023-05-20T04:50:35;98950.84;;;10.32;100.00
68855;BME280;69984;-43.570;172.580;2023-05-20T04:53:03;98949.50;;;10.22;100.00
68855;BME280;69984;-43.570;172.580;2023-05-20T04:55:29;98940.13;;;10.27;100.00
68855;BME280;69984;-43.570;172.580;2023-05-20T04:57:57;98944.72;;;10.25;100.00
68855;BME280;69984;-43.570;172.580;2023-05-20T05:00:24;98946.34;;;10.26;100.00
68855;BME280;69984;-43.570;172.580;2023-05-20T05:02:51;98949.72;;;10.20;100.00
68855;BME280;69984;-43.570;172.580;2023-05-20T05:05:18;98948.16;;;10.26;100.00
68855;BME280;69984;-43.570;172.580;2023-05-20T05:07:45;98946.34;;;10.26;100.00
68855;BME280;69984;-43.570;172.580;2023-05-20T05:10:12;98942.47;;;10.22;100.00
68855;BME280;69984;-43.570;172.580;2023-05-20T05:12:40;98959.16;;;10.21;100.00
68855;BME280;69984;-43.570;172.580;2023-05-20T05:15:08;98953.38;;;10.26;100.00
68855;BME280;69984;-43.570;172.580;2023-05-20T05:17:35;98961.34;;;10.18;100.00
68855;BME280;69984;-43.570;172.580;2023-05-20T05:20:02;98958.72;;;10.18;100.00
68855;BME280;69984;-43.570;172.580;2023-05-20T05:22:29;98957.13;;;10.17;100.00
68855;BME280;69984;-43.570;172.580;2023-05-20T05:24:56;98960.44;;;10.25;100.00
68855;BME280;69984;-43.570;172.580;2023-05-20T05:27:24;98967.03;;;10.21;100.00
68855;BME280;69984;-43.570;172.580;2023-05-20T05:29:51;98955.31;;;10.17;100.00
68855;BME280;69984;-43.570;172.580;2023-05-20T05:32:18;98964.41;;;10.21;100.00
68855;BME280;69984;-43.570;172.580;2023-05-20T05:34:45;98966.84;;;10.23;100.00
68855;BME280;69984;-43.570;172.580;2023-05-20T05:37:11;98968.03;;;10.20;100.00
68855;BME280;69984;-43.570;172.580;2023-05-20T05:39:38;98964.03;;;10.24;100.00
68855;BME280;69984;-43.570;172.580;2023-05-20T05:42:05;98969.28;;;10.24;100.00
68855;BME280;69984;-43.570;172.580;2023-05-20T05:44:32;98972.09;;;10.23;100.00
68855;BME280;69984;-43.570;172.580;2023-05-20T05:46:59;98972.25;;;10.21;100.00
68855;BME280;69984;-43.570;172.580;2023-05-20T05:49:26;98973.00;;;10.15;100.00
68855;BME280;69984;-43.570;172.580;2023-05-20T05:51:53;98980.38;;;10.12;100.00
68855;BME280;69984;-43.570;172.580;2023-05-20T05:54:20;98976.63;;;10.14;100.00
68855;BME280;69984;-43.570;172.580;2023-05-20T05:56:47;98984.63;;;10.13;100.00
68855;BME280;69984;-43.570;172.580;2023-05-20T05:59:15;98994.28;;;10.12;100.00
68855;BME280;69984;-43.570;172.580;2023-05-20T06:01:42;98990.16;;;10.18;100.00
68855;BME280;69984;-43.570;172.580;2023-05-20T06:04:09;98992.22;;;10.08;100.00
68855;BME280;69984;-43.570;172.580;2023-05-20T06:06:36;98995.28;;;10.11;100.00
68855;BME280;69984;-43.570;172.580;2023-05-20T06:09:03;98998.44;;;10.07;100.00
68855;BME280;69984;-43.570;172.580;2023-05-20T06:11:33;99003.13;;;10.11;100.00
68855;BME280;69984;-43.570;172.580;2023-05-20T06:14:02;98994.66;;;10.09;100.00
68855;BME280;69984;-43.570;172.580;2023-05-20T06:16:29;99001.81;;;10.00;100.00
68855;BME280;69984;-43.570;172.580;2023-05-20T06:18:56;99012.09;;;10.02;100.00
68855;BME280;69984;-43.570;172.580;2023-05-20T06:21:22;99010.63;;;9.99;100.00
68855;BME280;69984;-43.570;172.580;2023-05-20T06:23:51;99007.41;;;9.97;100.00
68855;BME280;69984;-43.570;172.580;2023-05-20T06:26:34;99014.88;;;10.00;100.00
68855;BME280;69984;-43.570;172.580;2023-05-20T06:29:02;98995.56;;;10.01;100.00
68855;BME280;69984;-43.570;172.580;2023-05-20T06:31:29;99023.56;;;10.01;100.00
68855;BME280;69984;-43.570;172.580;2023-05-20T06:33:56;99012.91;;;10.02;100.00
68855;BME280;69984;-43.570;172.580;2023-05-20T06:36:23;99012.34;;;10.07;100.00
68855;BME280;69984;-43.570;172.580;2023-05-20T06:38:50;99012.34;;;10.07;100.00
68855;BME280;69984;-43.570;172.580;2023-05-20T06:41:17;99011.28;;;10.01;100.00
68855;BME280;69984;-43.570;172.580;2023-05-20T06:43:45;99034.03;;;10.01;100.00
68855;BME280;69984;-43.570;172.580;2023-05-20T06:46:12;99026.78;;;10.03;100.00
68855;BME280;69984;-43.570;172.580;2023-05-20T06:48:39;99022.13;;;9.98;100.00
68855;BME280;69984;-43.570;172.580;2023-05-20T06:51:09;99047.47;;;9.98;100.00
68855;BME280;69984;-43.570;172.580;2023-05-20T06:53:36;99051.44;;;9.94;100.00
68855;BME280;69984;-43.570;172.580;2023-05-20T06:56:03;99038.44;;;10.00;100.00
68855;BME280;69984;-43.570;172.580;2023-05-20T06:58:31;99041.25;;;9.99;100.00
68855;BME280;69984;-43.570;172.580;2023-05-20T07:00:58;99044.41;;;9.94;100.00
68855;BME280;69984;-43.570;172.580;2023-05-20T07:03:25;99043.97;;;9.91;100.00
68855;BME280;69984;-43.570;172.580;2023-05-20T07:05:52;99058.56;;;10.00;100.00
68855;BME280;69984;-43.570;172.580;2023-05-20T07:08:19;99062.06;;;9.92;100.00
68855;BME280;69984;-43.570;172.580;2023-05-20T07:10:46;99056.41;;;9.89;100.00
68855;BME280;69984;-43.570;172.580;2023-05-20T07:13:14;99067.44;;;9.99;100.00
68855;BME280;69984;-43.570;172.580;2023-05-20T07:15:44;99066.16;;;9.95;100.00
68855;BME280;69984;-43.570;172.580;2023-05-20T07:18:12;99065.78;;;9.98;100.00
68855;BME280;69984;-43.570;172.580;2023-05-20T07:20:39;99067.44;;;9.99;100.00
68855;BME280;69984;-43.570;172.580;2023-05-20T07:23:06;99066.53;;;9.92;100.00
68855;BME280;69984;-43.570;172.580;2023-05-20T07:25:33;99060.28;;;9.93;100.00
68855;BME280;69984;-43.570;172.580;2023-05-20T07:28:00;99077.25;;;9.97;100.00
68855;BME280;69984;-43.570;172.580;2023-05-20T07:30:27;99074.63;;;9.97;100.00
68855;BME280;69984;-43.570;172.580;2023-05-20T07:32:54;99071.66;;;10.00;100.00
68855;BME280;69984;-43.570;172.580;2023-05-20T07:35:21;99068.66;;;10.03;100.00
68855;BME280;69984;-43.570;172.580;2023-05-20T07:37:49;99070.38;;;9.96;100.00
68855;BME280;69984;-43.570;172.580;2023-05-20T07:40:16;99067.59;;;9.97;100.00
68855;BME280;69984;-43.570;172.580;2023-05-20T07:42:43;99066.97;;;9.95;100.00
68855;BME280;69984;-43.570;172.580;2023-05-20T07:45:11;99073.81;;;9.96;100.00
68855;BME280;69984;-43.570;172.580;2023-05-20T07:47:38;99076.88;;;10.00;100.00
68855;BME280;69984;-43.570;172.580;2023-05-20T07:50:06;99070.66;;;10.01;100.00
68855;BME280;69984;-43.570;172.580;2023-05-20T07:52:33;99082.84;;;9.94;100.00
68855;BME280;69984;-43.570;172.580;2023-05-20T07:55:00;99088.38;;;9.99;100.00
68855;BME280;69984;-43.570;172.580;2023-05-20T07:57:29;99076.63;;;9.95;100.00
68855;BME280;69984;-43.570;172.580;2023-05-20T07:59:56;99075.91;;;10.01;100.00
68855;BME280;69984;-43.570;172.580;2023-05-20T08:02:23;99072.75;;;10.06;100.00
68855;BME280;69984;-43.570;172.580;2023-05-20T08:04:50;99073.72;;;10.04;100.00
68855;BME280;69984;-43.570;172.580;2023-05-20T08:07:18;99067.88;;;10.02;100.00
68855;BME280;69984;-43.570;172.580;2023-05-20T08:09:45;99079.25;;;10.10;100.00
68855;BME280;69984;-43.570;172.580;2023-05-20T08:12:12;99088.09;;;10.09;100.00
68855;BME280;69984;-43.570;172.580;2023-05-20T08:14:39;99083.38;;;10.04;100.00
68855;BME280;69984;-43.570;172.580;2023-05-20T08:17:06;99085.63;;;10.07;100.00
68855;BME280;69984;-43.570;172.580;2023-05-20T08:19:33;99078.97;;;10.04;100.00
68855;BME280;69984;-43.570;172.580;2023-05-20T08:22:00;99081.66;;;10.11;100.00
68855;BME280;69984;-43.570;172.580;2023-05-20T08:24:28;99090.88;;;10.07;100.00
68855;BME280;69984;-43.570;172.580;2023-05-20T08:26:55;99093.50;;;10.07;100.00
68855;BME280;69984;-43.570;172.580;2023-05-20T08:29:22;99090.41;;;10.03;100.00
68855;BME280;69984;-43.570;172.580;2023-05-20T08:31:49;99091.44;;;10.02;100.00
68855;BME280;69984;-43.570;172.580;2023-05-20T08:34:17;99089.88;;;10.08;100.00
68855;BME280;69984;-43.570;172.580;2023-05-20T08:36:44;99104.53;;;10.02;100.00
68855;BME280;69984;-43.570;172.580;2023-05-20T08:39:12;99106.69;;;9.99;100.00
68855;BME280;69984;-43.570;172.580;2023-05-20T08:41:40;99101.53;;;10.06;100.00
68855;BME280;69984;-43.570;172.580;2023-05-20T08:44:09;99105.31;;;10.03;100.00
68855;BME280;69984;-43.570;172.580;2023-05-20T08:46:39;99108.28;;;10.00;100.00
68855;BME280;69984;-43.570;172.580;2023-05-20T08:49:07;99126.00;;;9.98;100.00
68855;BME280;69984;-43.570;172.580;2023-05-20T08:51:35;99108.13;;;10.01;100.00
68855;BME280;69984;-43.570;172.580;2023-05-20T08:54:03;99104.31;;;10.04;100.00
68855;BME280;69984;-43.570;172.580;2023-05-20T08:56:31;99110.53;;;10.03;100.00
68855;BME280;69984;-43.570;172.580;2023-05-20T08:58:59;99104.97;;;10.06;100.00
68855;BME280;69984;-43.570;172.580;2023-05-20T09:01:26;99106.78;;;10.06;100.00
68855;BME280;69984;-43.570;172.580;2023-05-20T09:03:53;99094.22;;;10.01;100.00
68855;BME280;69984;-43.570;172.580;2023-05-20T09:06:20;99103.63;;;9.95;100.00
68855;BME280;69984;-43.570;172.580;2023-05-20T09:08:50;99108.41;;;9.92;100.00
68855;BME280;69984;-43.570;172.580;2023-05-20T09:11:18;99101.25;;;10.00;100.00
68855;BME280;69984;-43.570;172.580;2023-05-20T09:13:48;99087.34;;;10.00;100.00
68855;BME280;69984;-43.570;172.580;2023-05-20T09:16:15;99099.00;;;9.97;100.00
68855;BME280;69984;-43.570;172.580;2023-05-20T09:18:42;99102.06;;;10.01;100.00
68855;BME280;69984;-43.570;172.580;2023-05-20T09:21:09;99096.56;;;9.96;100.00
68855;BME280;69984;-43.570;172.580;2023-05-20T09:23:37;99103.25;;;9.98;100.00
68855;BME280;69984;-43.570;172.580;2023-05-20T09:26:04;99094.38;;;9.99;100.00
68855;BME280;69984;-43.570;172.580;2023-05-20T09:28:31;99111.56;;;10.02;100.00
68855;BME280;69984;-43.570;172.580;2023-05-20T09:30:59;99104.31;;;10.04;100.00
68855;BME280;69984;-43.570;172.580;2023-05-20T09:33:28;99108.22;;;10.08;100.00
68855;BME280;69984;-43.570;172.580;2023-05-20T09:36:07;99116.19;;;10.15;100.00
68855;BME280;69984;-43.570;172.580;2023-05-20T09:38:37;99115.53;;;10.13;100.00
68855;BME280;69984;-43.570;172.580;2023-05-20T09:41:12;99121.69;;;10.20;100.00
68855;BME280;69984;-43.570;172.580;2023-05-20T09:43:40;99110.22;;;10.21;100.00
68855;BME280;69984;-43.570;172.580;2023-05-20T09:46:08;99117.53;;;10.25;100.00
68855;BME280;69984;-43.570;172.580;2023-05-20T09:48:36;99126.38;;;10.24;100.00
68855;BME280;69984;-43.570;172.580;2023-05-20T09:51:04;99121.94;;;10.25;100.00
68855;BME280;69984;-43.570;172.580;2023-05-20T09:53:32;99125.00;;;10.28;100.00
68855;BME280;69984;-43.570;172.580;2023-05-20T09:55:59;99129.72;;;10.33;100.00
68855;BME280;69984;-43.570;172.580;2023-05-20T09:58:26;99117.06;;;10.36;100.00
68855;BME280;69984;-43.570;172.580;2023-05-20T10:00:54;99123.75;;;10.39;100.00
68855;BME280;69984;-43.570;172.580;2023-05-20T10:03:22;99121.19;;;10.45;100.00
68855;BME280;69984;-43.570;172.580;2023-05-20T10:11:51;99134.56;;;10.50;100.00
68855;BME280;69984;-43.570;172.580;2023-05-20T10:19:48;99135.03;;;10.54;100.00
68855;BME280;69984;-43.570;172.580;2023-05-20T10:22:26;99141.69;;;10.57;100.00
68855;BME280;69984;-43.570;172.580;2023-05-20T10:25:03;99137.88;;;10.59;100.00
68855;BME280;69984;-43.570;172.580;2023-05-20T10:27:44;99147.13;;;10.55;100.00
68855;BME280;69984;-43.570;172.580;2023-05-20T10:30:21;99138.25;;;10.56;100.00
68855;BME280;69984;-43.570;172.580;2023-05-20T10:32:52;99160.03;;;10.42;100.00
68855;BME280;69984;-43.570;172.580;2023-05-20T10:35:23;99158.44;;;10.41;100.00
68855;BME280;69984;-43.570;172.580;2023-05-20T10:37:52;99160.41;;;10.39;100.00
68855;BME280;69984;-43.570;172.580;2023-05-20T10:40:21;99161.59;;;10.36;100.00
68855;BME280;69984;-43.570;172.580;2023-05-20T10:42:48;99158.34;;;10.34;100.00
68855;BME280;69984;-43.570;172.580;2023-05-20T10:45:27;99166.84;;;10.36;100.00
68855;BME280;69984;-43.570;172.580;2023-05-20T10:47:55;99163.75;;;10.33;100.00
68855;BME280;69984;-43.570;172.580;2023-05-20T10:50:35;99166.75;;;10.30;100.00
68855;BME280;69984;-43.570;172.580;2023-05-20T10:53:11;99158.25;;;10.28;100.00
68855;BME280;69984;-43.570;172.580;2023-05-20T10:55:39;99175.59;;;10.29;100.00
68855;BME280;69984;-43.570;172.580;2023-05-20T10:58:08;99178.41;;;10.27;100.00
68855;BME280;69984;-43.570;172.580;2023-05-20T11:00:36;99173.16;;;10.27;100.00
68855;BME280;69984;-43.570;172.580;2023-05-20T11:03:04;99169.16;;;10.31;100.00
68855;BME280;69984;-43.570;172.580;2023-05-20T11:05:32;99173.25;;;10.34;100.00
68855;BME280;69984;-43.570;172.580;2023-05-20T11:08:03;99172.44;;;10.33;100.00
68855;BME280;69984;-43.570;172.580;2023-05-20T11:10:30;99196.63;;;10.35;100.00
68855;BME280;69984;-43.570;172.580;2023-05-20T11:12:57;99196.25;;;10.38;100.00
68855;BME280;69984;-43.570;172.580;2023-05-20T11:15:24;99195.44;;;10.38;100.00
68855;BME280;69984;-43.570;172.580;2023-05-20T11:17:56;99210.72;;;10.34;100.00
68855;BME280;69984;-43.570;172.580;2023-05-20T11:20:24;99204.22;;;10.30;100.00
68855;BME280;69984;-43.570;172.580;2023-05-20T11:22:52;99209.63;;;10.29;100.00
68855;BME280;69984;-43.570;172.580;2023-05-20T11:25:20;99208.19;;;10.26;100.00
68855;BME280;69984;-43.570;172.580;2023-05-20T11:27:49;99215.75;;;10.21;100.00
68855;BME280;69984;-43.570;172.580;2023-05-20T11:30:17;99208.09;;;10.20;100.00
68855;BME280;69984;-43.570;172.580;2023-05-20T11:33:02;99220.00;;;10.22;100.00
68855;BME280;69984;-43.570;172.580;2023-05-20T11:35:32;99220.81;;;10.23;100.00
68855;BME280;69984;-43.570;172.580;2023-05-20T11:38:05;99227.34;;;10.27;100.00
68855;BME280;69984;-43.570;172.580;2023-05-20T11:40:34;99242.69;;;10.30;100.00
68855;BME280;69984;-43.570;172.580;2023-05-20T11:43:02;99227.34;;;10.27;100.00
68855;BME280;69984;-43.570;172.580;2023-05-20T11:45:40;99216.66;;;10.28;100.00
68855;BME280;69984;-43.570;172.580;2023-05-20T11:48:07;99238.78;;;10.26;100.00
68855;BME280;69984;-43.570;172.580;2023-05-20T11:50:37;99225.09;;;10.24;100.00
68855;BME280;69984;-43.570;172.580;2023-05-20T11:53:19;99236.19;;;10.26;100.00
68855;BME280;69984;-43.570;172.580;2023-05-20T11:55:47;99224.25;;;10.23;100.00
68855;BME280;69984;-43.570;172.580;2023-05-20T11:58:22;99241.69;;;10.16;100.00
68855;BME280;69984;-43.570;172.580;2023-05-20T12:00:49;99243.00;;;10.12;100.00
68855;BME280;69984;-43.570;172.580;2023-05-20T12:03:17;99250.66;;;10.14;100.00
68855;BME280;69984;-43.570;172.580;2023-05-20T12:05:44;99234.47;;;10.10;100.00
68855;BME280;69984;-43.570;172.580;2023-05-20T12:08:13;99244.94;;;10.10;100.00
68855;BME280;69984;-43.570;172.580;2023-05-20T12:10:40;99244.22;;;10.01;100.00
68855;BME280;69984;-43.570;172.580;2023-05-20T12:13:08;99249.09;;;10.04;100.00
68855;BME280;69984;-43.570;172.580;2023-05-20T12:15:36;99255.88;;;9.99;100.00
68855;BME280;69984;-43.570;172.580;2023-05-20T12:18:03;99260.00;;;9.93;100.00
68855;BME280;69984;-43.570;172.580;2023-05-20T12:20:31;99261.78;;;9.93;100.00
68855;BME280;69984;-43.570;172.580;2023-05-20T12:23:00;99257.91;;;9.89;100.00
68855;BME280;69984;-43.570;172.580;2023-05-20T12:25:27;99255.81;;;9.84;100.00
68855;BME280;69984;-43.570;172.580;2023-05-20T12:27:55;99259.44;;;9.83;100.00
68855;BME280;69984;-43.570;172.580;2023-05-20T12:30:23;99254.34;;;9.82;100.00
68855;BME280;69984;-43.570;172.580;2023-05-20T12:32:50;99256.69;;;9.77;100.00
68855;BME280;69984;-43.570;172.580;2023-05-20T12:35:34;99253.25;;;9.76;100.00
68855;BME280;69984;-43.570;172.580;2023-05-20T12:38:02;99252.81;;;9.73;100.00
68855;BME280;69984;-43.570;172.580;2023-05-20T12:40:29;99255.69;;;12.73;nan